sensor_id;sensor_type;location;lat;lon;timestamp;P1;durP1;ratioP1;P2;durP2;ratioP2
76063;SDS011;64762;52.006;8.424;2023-03-01T00:01:06;11.80;;;4.78;;
76063;SDS011;64762;52.006;8.424;2023-03-01T00:03:33;12.88;;;4.93;;
76063;SDS011;64762;52.006;8.424;2023-03-01T00:05:58;10.88;;;4.68;;
76063;SDS011;64762;52.006;8.424;2023-03-01T00:08:24;9.53;;;5.10;;
76063;SDS011;64762;52.006;8.424;2023-03-01T00:10:59;11.15;;;5.20;;
76063;SDS011;64762;52.006;8.424;2023-03-01T00:13:25;9.48;;;4.03;;
76063;SDS011;64762;52.006;8.424;2023-03-01T00:15:51;9.47;;;4.47;;
76063;SDS011;64762;52.006;8.424;2023-03-01T00:18:16;13.57;;;5.23;;
76063;SDS011;64762;52.006;8.424;2023-03-01T00:20:41;9.33;;;4.40;;
76063;SDS011;64762;52.006;8.424;2023-03-01T00:23:07;12.37;;;5.10;;
76063;SDS011;64762;52.006;8.424;2023-03-01T00:25:32;11.67;;;4.47;;
76063;SDS011;64762;52.006;8.424;2023-03-01T00:27:57;14.83;;;5.00;;
76063;SDS011;64762;52.006;8.424;2023-03-01T00:30:22;10.87;;;4.47;;
76063;SDS011;64762;52.006;8.424;2023-03-01T00:32:48;9.83;;;4.53;;
76063;SDS011;64762;52.006;8.424;2023-03-01T00:35:13;10.67;;;5.40;;
76063;SDS011;64762;52.006;8.424;2023-03-01T00:37:38;13.17;;;4.53;;
76063;SDS011;64762;52.006;8.424;2023-03-01T00:40:05;14.23;;;5.47;;
76063;SDS011;64762;52.006;8.424;2023-03-01T00:42:31;13.25;;;5.05;;
76063;SDS011;64762;52.006;8.424;2023-03-01T00:44:56;12.67;;;5.03;;
76063;SDS011;64762;52.006;8.424;2023-03-01T00:47:22;11.07;;;4.83;;
76063;SDS011;64762;52.006;8.424;2023-03-01T00:49:47;10.80;;;4.27;;
76063;SDS011;64762;52.006;8.424;2023-03-01T00:52:13;8.65;;;4.45;;
76063;SDS011;64762;52.006;8.424;2023-03-01T00:54:38;10.07;;;4.57;;
76063;SDS011;64762;52.006;8.424;2023-03-01T00:57:03;8.57;;;4.03;;
76063;SDS011;64762;52.006;8.424;2023-03-01T00:59:29;13.23;;;4.53;;
76063;SDS011;64762;52.006;8.424;2023-03-01T01:01:54;11.23;;;4.47;;
76063;SDS011;64762;52.006;8.424;2023-03-01T01:04:19;10.67;;;4.77;;
76063;SDS011;64762;52.006;8.424;2023-03-01T01:06:45;10.03;;;4.30;;
76063;SDS011;64762;52.006;8.424;2023-03-01T01:09:12;12.13;;;4.65;;
76063;SDS011;64762;52.006;8.424;2023-03-01T01:11:43;10.57;;;4.90;;
76063;SDS011;64762;52.006;8.424;2023-03-01T01:14:12;9.75;;;4.32;;
76063;SDS011;64762;52.006;8.424;2023-03-01T01:16:38;9.85;;;4.13;;
76063;SDS011;64762;52.006;8.424;2023-03-01T01:19:04;11.10;;;4.50;;
76063;SDS011;64762;52.006;8.424;2023-03-01T01:21:29;12.23;;;4.67;;
76063;SDS011;64762;52.006;8.424;2023-03-01T01:23:56;9.95;;;4.93;;
76063;SDS011;64762;52.006;8.424;2023-03-01T01:26:23;11.68;;;4.55;;
76063;SDS011;64762;52.006;8.424;2023-03-01T01:28:50;14.07;;;5.72;;
76063;SDS011;64762;52.006;8.424;2023-03-01T01:31:16;14.90;;;4.40;;
76063;SDS011;64762;52.006;8.424;2023-03-01T01:33:42;10.75;;;4.65;;
76063;SDS011;64762;52.006;8.424;2023-03-01T01:36:08;11.65;;;5.03;;
76063;SDS011;64762;52.006;8.424;2023-03-01T01:38:34;15.75;;;5.20;;
76063;SDS011;64762;52.006;8.424;2023-03-01T01:41:00;11.77;;;4.72;;
76063;SDS011;64762;52.006;8.424;2023-03-01T01:43:26;12.17;;;5.07;;
76063;SDS011;64762;52.006;8.424;2023-03-01T01:45:55;12.85;;;4.63;;
76063;SDS011;64762;52.006;8.424;2023-03-01T01:48:22;14.13;;;6.32;;
76063;SDS011;64762;52.006;8.424;2023-03-01T01:50:56;11.77;;;5.10;;
76063;SDS011;64762;52.006;8.424;2023-03-01T01:53:24;15.15;;;5.40;;
76063;SDS011;64762;52.006;8.424;2023-03-01T01:55:52;10.68;;;5.00;;
76063;SDS011;64762;52.006;8.424;2023-03-01T01:58:21;14.63;;;5.35;;
76063;SDS011;64762;52.006;8.424;2023-03-01T02:00:47;12.15;;;4.78;;
76063;SDS011;64762;52.006;8.424;2023-03-01T02:03:14;13.85;;;4.68;;
76063;SDS011;64762;52.006;8.424;2023-03-01T02:05:45;11.60;;;5.05;;
76063;SDS011;64762;52.006;8.424;2023-03-01T02:08:14;15.48;;;5.60;;
76063;SDS011;64762;52.006;8.424;2023-03-01T02:10:42;12.85;;;5.10;;
76063;SDS011;64762;52.006;8.424;2023-03-01T02:13:07;11.27;;;4.73;;
76063;SDS011;64762;52.006;8.424;2023-03-01T02:15:33;12.00;;;5.47;;
76063;SDS011;64762;52.006;8.424;2023-03-01T02:17:59;12.15;;;6.10;;
76063;SDS011;64762;52.006;8.424;2023-03-01T02:20:39;13.65;;;5.55;;
76063;SDS011;64762;52.006;8.424;2023-03-01T02:23:10;13.90;;;6.53;;
76063;SDS011;64762;52.006;8.424;2023-03-01T02:28:29;14.77;;;5.32;;
76063;SDS011;64762;52.006;8.424;2023-03-01T02:30:55;14.30;;;6.05;;
76063;SDS011;64762;52.006;8.424;2023-03-01T02:33:40;12.90;;;5.35;;
76063;SDS011;64762;52.006;8.424;2023-03-01T02:36:10;12.90;;;5.68;;
76063;SDS011;64762;52.006;8.424;2023-03-01T02:38:40;13.40;;;5.32;;
76063;SDS011;64762;52.006;8.424;2023-03-01T02:41:06;15.63;;;6.43;;
76063;SDS011;64762;52.006;8.424;2023-03-01T02:43:33;12.38;;;5.65;;
76063;SDS011;64762;52.006;8.424;2023-03-01T02:45:59;12.43;;;6.03;;
76063;SDS011;64762;52.006;8.424;2023-03-01T02:48:40;13.10;;;6.07;;
76063;SDS011;64762;52.006;8.424;2023-03-01T02:51:18;12.73;;;6.00;;
76063;SDS011;64762;52.006;8.424;2023-03-01T02:56:48;15.13;;;5.90;;
76063;SDS011;64762;52.006;8.424;2023-03-01T02:59:13;11.52;;;5.72;;
76063;SDS011;64762;52.006;8.424;2023-03-01T03:01:40;14.25;;;6.30;;
76063;SDS011;64762;52.006;8.424;2023-03-01T03:04:08;17.92;;;6.45;;
76063;SDS011;64762;52.006;8.424;2023-03-01T03:06:35;16.73;;;6.47;;
76063;SDS011;64762;52.006;8.424;2023-03-01T03:09:01;16.98;;;6.05;;
76063;SDS011;64762;52.006;8.424;2023-03-01T03:11:27;12.88;;;6.30;;
76063;SDS011;64762;52.006;8.424;2023-03-01T03:13:52;17.17;;;6.50;;
76063;SDS011;64762;52.006;8.424;2023-03-01T03:16:18;16.02;;;7.57;;
76063;SDS011;64762;52.006;8.424;2023-03-01T03:18:44;16.90;;;6.90;;
76063;SDS011;64762;52.006;8.424;2023-03-01T03:21:09;16.33;;;6.43;;
76063;SDS011;64762;52.006;8.424;2023-03-01T03:23:36;18.10;;;7.72;;
76063;SDS011;64762;52.006;8.424;2023-03-01T03:26:02;18.30;;;7.70;;
76063;SDS011;64762;52.006;8.424;2023-03-01T03:28:29;19.02;;;7.68;;
76063;SDS011;64762;52.006;8.424;2023-03-01T03:30:58;13.95;;;6.68;;
76063;SDS011;64762;52.006;8.424;2023-03-01T03:33:23;17.50;;;7.70;;
76063;SDS011;64762;52.006;8.424;2023-03-01T03:35:49;15.25;;;7.22;;
76063;SDS011;64762;52.006;8.424;2023-03-01T03:38:15;15.45;;;8.10;;
76063;SDS011;64762;52.006;8.424;2023-03-01T03:40:45;14.30;;;7.53;;
76063;SDS011;64762;52.006;8.424;2023-03-01T03:43:21;16.50;;;7.70;;
76063;SDS011;64762;52.006;8.424;2023-03-01T03:45:48;15.38;;;7.93;;
76063;SDS011;64762;52.006;8.424;2023-03-01T03:48:14;16.63;;;8.02;;
76063;SDS011;64762;52.006;8.424;2023-03-01T03:50:40;14.40;;;7.50;;
76063;SDS011;64762;52.006;8.424;2023-03-01T03:53:07;15.82;;;8.32;;
76063;SDS011;64762;52.006;8.424;2023-03-01T03:55:36;15.38;;;6.85;;
76063;SDS011;64762;52.006;8.424;2023-03-01T03:58:04;13.70;;;7.10;;
76063;SDS011;64762;52.006;8.424;2023-03-01T04:00:37;16.50;;;7.45;;
76063;SDS011;64762;52.006;8.424;2023-03-01T04:03:04;16.48;;;7.95;;
76063;SDS011;64762;52.006;8.424;2023-03-01T04:05:30;17.20;;;7.85;;
76063;SDS011;64762;52.006;8.424;2023-03-01T04:07:55;14.90;;;7.55;;
76063;SDS011;64762;52.006;8.424;2023-03-01T04:10:28;19.17;;;8.40;;
76063;SDS011;64762;52.006;8.424;2023-03-01T04:12:54;17.42;;;8.13;;
76063;SDS011;64762;52.006;8.424;2023-03-01T04:15:22;15.80;;;7.28;;
76063;SDS011;64762;52.006;8.424;2023-03-01T04:17:49;20.95;;;8.35;;
76063;SDS011;64762;52.006;8.424;2023-03-01T04:20:16;23.17;;;7.75;;
76063;SDS011;64762;52.006;8.424;2023-03-01T04:22:49;15.20;;;7.50;;
76063;SDS011;64762;52.006;8.424;2023-03-01T04:25:18;16.80;;;8.40;;
76063;SDS011;64762;52.006;8.424;2023-03-01T04:27:44;17.08;;;8.73;;
76063;SDS011;64762;52.006;8.424;2023-03-01T04:30:09;15.40;;;8.13;;
76063;SDS011;64762;52.006;8.424;2023-03-01T04:32:35;16.73;;;7.18;;
76063;SDS011;64762;52.006;8.424;2023-03-01T04:35:00;15.70;;;7.23;;
76063;SDS011;64762;52.006;8.424;2023-03-01T04:37:26;16.70;;;8.30;;
76063;SDS011;64762;52.006;8.424;2023-03-01T04:39:51;14.95;;;7.05;;
76063;SDS011;64762;52.006;8.424;2023-03-01T04:42:17;12.68;;;7.03;;
76063;SDS011;64762;52.006;8.424;2023-03-01T04:44:43;16.63;;;7.35;;
76063;SDS011;64762;52.006;8.424;2023-03-01T04:47:08;17.58;;;8.32;;
76063;SDS011;64762;52.006;8.424;2023-03-01T04:49:34;16.13;;;7.63;;
76063;SDS011;64762;52.006;8.424;2023-03-01T04:51:59;16.13;;;7.27;;
76063;SDS011;64762;52.006;8.424;2023-03-01T04:54:26;15.00;;;6.95;;
76063;SDS011;64762;52.006;8.424;2023-03-01T04:56:55;16.27;;;7.45;;
76063;SDS011;64762;52.006;8.424;2023-03-01T04:59:20;14.93;;;7.27;;
76063;SDS011;64762;52.006;8.424;2023-03-01T05:01:49;19.17;;;7.05;;
76063;SDS011;64762;52.006;8.424;2023-03-01T05:04:14;15.68;;;7.32;;
76063;SDS011;64762;52.006;8.424;2023-03-01T05:06:40;18.80;;;7.57;;
76063;SDS011;64762;52.006;8.424;2023-03-01T05:09:05;17.60;;;7.40;;
76063;SDS011;64762;52.006;8.424;2023-03-01T05:11:31;17.40;;;7.70;;
76063;SDS011;64762;52.006;8.424;2023-03-01T05:14:00;14.52;;;7.47;;
76063;SDS011;64762;52.006;8.424;2023-03-01T05:16:26;15.40;;;7.32;;
76063;SDS011;64762;52.006;8.424;2023-03-01T05:18:51;15.97;;;7.77;;
76063;SDS011;64762;52.006;8.424;2023-03-01T05:21:16;15.97;;;7.77;;
76063;SDS011;64762;52.006;8.424;2023-03-01T05:23:42;14.65;;;7.13;;
76063;SDS011;64762;52.006;8.424;2023-03-01T05:26:10;17.38;;;7.20;;
76063;SDS011;64762;52.006;8.424;2023-03-01T05:28:37;13.43;;;7.40;;
76063;SDS011;64762;52.006;8.424;2023-03-01T05:31:02;14.50;;;6.40;;
76063;SDS011;64762;52.006;8.424;2023-03-01T05:33:28;12.15;;;6.10;;
76063;SDS011;64762;52.006;8.424;2023-03-01T05:35:53;15.50;;;6.47;;
76063;SDS011;64762;52.006;8.424;2023-03-01T05:38:19;16.13;;;6.68;;
76063;SDS011;64762;52.006;8.424;2023-03-01T05:40:46;16.02;;;6.55;;
76063;SDS011;64762;52.006;8.424;2023-03-01T05:43:13;15.80;;;6.78;;
76063;SDS011;64762;52.006;8.424;2023-03-01T05:45:40;12.93;;;6.55;;
76063;SDS011;64762;52.006;8.424;2023-03-01T05:48:06;16.08;;;6.78;;
76063;SDS011;64762;52.006;8.424;2023-03-01T05:50:36;14.82;;;7.13;;
76063;SDS011;64762;52.006;8.424;2023-03-01T05:53:05;17.88;;;6.95;;
76063;SDS011;64762;52.006;8.424;2023-03-01T05:55:44;22.67;;;7.78;;
76063;SDS011;64762;52.006;8.424;2023-03-01T05:58:13;17.73;;;7.80;;
76063;SDS011;64762;52.006;8.424;2023-03-01T06:00:40;14.15;;;7.22;;
76063;SDS011;64762;52.006;8.424;2023-03-01T06:03:05;16.35;;;7.63;;
76063;SDS011;64762;52.006;8.424;2023-03-01T06:05:31;11.73;;;6.10;;
76063;SDS011;64762;52.006;8.424;2023-03-01T06:08:00;19.25;;;7.43;;
76063;SDS011;64762;52.006;8.424;2023-03-01T06:10:26;20.48;;;7.95;;
76063;SDS011;64762;52.006;8.424;2023-03-01T06:12:51;18.08;;;7.90;;
76063;SDS011;64762;52.006;8.424;2023-03-01T06:15:17;17.63;;;8.85;;
76063;SDS011;64762;52.006;8.424;2023-03-01T06:17:43;13.97;;;6.07;;
76063;SDS011;64762;52.006;8.424;2023-03-01T06:20:10;15.50;;;7.80;;
76063;SDS011;64762;52.006;8.424;2023-03-01T06:22:36;16.02;;;7.20;;
76063;SDS011;64762;52.006;8.424;2023-03-01T06:25:02;16.20;;;7.20;;
76063;SDS011;64762;52.006;8.424;2023-03-01T06:27:27;11.88;;;6.93;;
76063;SDS011;64762;52.006;8.424;2023-03-01T06:29:52;14.60;;;7.37;;
76063;SDS011;64762;52.006;8.424;2023-03-01T06:32:18;13.73;;;7.73;;
76063;SDS011;64762;52.006;8.424;2023-03-01T06:34:43;18.03;;;7.30;;
76063;SDS011;64762;52.006;8.424;2023-03-01T06:37:09;18.65;;;7.18;;
76063;SDS011;64762;52.006;8.424;2023-03-01T06:39:34;16.93;;;8.07;;
76063;SDS011;64762;52.006;8.424;2023-03-01T06:41:59;14.73;;;6.47;;
76063;SDS011;64762;52.006;8.424;2023-03-01T06:44:25;16.27;;;8.05;;
76063;SDS011;64762;52.006;8.424;2023-03-01T06:46:50;20.17;;;7.93;;
76063;SDS011;64762;52.006;8.424;2023-03-01T06:49:15;14.53;;;7.13;;
76063;SDS011;64762;52.006;8.424;2023-03-01T06:51:42;19.08;;;7.40;;
76063;SDS011;64762;52.006;8.424;2023-03-01T06:54:07;17.20;;;7.67;;
76063;SDS011;64762;52.006;8.424;2023-03-01T06:56:33;16.40;;;7.77;;
76063;SDS011;64762;52.006;8.424;2023-03-01T06:58:58;20.50;;;7.20;;
76063;SDS011;64762;52.006;8.424;2023-03-01T07:01:23;16.90;;;7.38;;
76063;SDS011;64762;52.006;8.424;2023-03-01T07:03:49;23.38;;;7.65;;
76063;SDS011;64762;52.006;8.424;2023-03-01T07:06:14;23.97;;;7.70;;
76063;SDS011;64762;52.006;8.424;2023-03-01T07:08:40;13.60;;;6.63;;
76063;SDS011;64762;52.006;8.424;2023-03-01T07:11:05;19.97;;;7.27;;
76063;SDS011;64762;52.006;8.424;2023-03-01T07:13:30;13.13;;;5.40;;
76063;SDS011;64762;52.006;8.424;2023-03-01T07:15:56;13.93;;;5.63;;
76063;SDS011;64762;52.006;8.424;2023-03-01T07:18:21;16.77;;;5.60;;
76063;SDS011;64762;52.006;8.424;2023-03-01T07:20:47;9.18;;;5.57;;
76063;SDS011;64762;52.006;8.424;2023-03-01T07:23:12;15.77;;;5.73;;
76063;SDS011;64762;52.006;8.424;2023-03-01T07:25:38;16.15;;;6.57;;
76063;SDS011;64762;52.006;8.424;2023-03-01T07:28:04;12.73;;;5.68;;
76063;SDS011;64762;52.006;8.424;2023-03-01T07:30:29;12.95;;;6.13;;
76063;SDS011;64762;52.006;8.424;2023-03-01T07:32:55;13.55;;;6.15;;
76063;SDS011;64762;52.006;8.424;2023-03-01T07:35:22;10.95;;;5.55;;
76063;SDS011;64762;52.006;8.424;2023-03-01T07:37:47;15.05;;;5.70;;
76063;SDS011;64762;52.006;8.424;2023-03-01T07:40:13;10.73;;;5.20;;
76063;SDS011;64762;52.006;8.424;2023-03-01T07:42:38;14.70;;;6.40;;
76063;SDS011;64762;52.006;8.424;2023-03-01T07:45:04;18.43;;;6.07;;
76063;SDS011;64762;52.006;8.424;2023-03-01T07:47:30;16.55;;;5.53;;
76063;SDS011;64762;52.006;8.424;2023-03-01T07:49:55;18.93;;;7.40;;
76063;SDS011;64762;52.006;8.424;2023-03-01T07:52:20;18.27;;;6.90;;
76063;SDS011;64762;52.006;8.424;2023-03-01T07:54:46;15.30;;;6.77;;
76063;SDS011;64762;52.006;8.424;2023-03-01T07:57:11;13.37;;;6.40;;
76063;SDS011;64762;52.006;8.424;2023-03-01T07:59:36;15.27;;;6.40;;
76063;SDS011;64762;52.006;8.424;2023-03-01T08:02:02;18.77;;;7.47;;
76063;SDS011;64762;52.006;8.424;2023-03-01T08:04:27;17.87;;;6.23;;
76063;SDS011;64762;52.006;8.424;2023-03-01T08:06:53;12.87;;;6.30;;
76063;SDS011;64762;52.006;8.424;2023-03-01T08:09:21;18.67;;;7.05;;
76063;SDS011;64762;52.006;8.424;2023-03-01T08:11:47;17.63;;;8.23;;
76063;SDS011;64762;52.006;8.424;2023-03-01T08:14:12;13.47;;;7.13;;
76063;SDS011;64762;52.006;8.424;2023-03-01T08:16:37;12.67;;;6.23;;
76063;SDS011;64762;52.006;8.424;2023-03-01T08:19:10;13.30;;;6.47;;
76063;SDS011;64762;52.006;8.424;2023-03-01T08:21:36;12.10;;;6.18;;
76063;SDS011;64762;52.006;8.424;2023-03-01T08:24:02;14.02;;;6.28;;
76063;SDS011;64762;52.006;8.424;2023-03-01T08:26:28;15.00;;;7.75;;
76063;SDS011;64762;52.006;8.424;2023-03-01T08:28:53;12.17;;;6.67;;
76063;SDS011;64762;52.006;8.424;2023-03-01T08:31:22;12.30;;;6.17;;
76063;SDS011;64762;52.006;8.424;2023-03-01T08:33:49;13.98;;;7.38;;
76063;SDS011;64762;52.006;8.424;2023-03-01T08:36:20;16.00;;;7.43;;
76063;SDS011;64762;52.006;8.424;2023-03-01T08:38:45;13.93;;;6.80;;
76063;SDS011;64762;52.006;8.424;2023-03-01T08:41:11;15.98;;;6.93;;
76063;SDS011;64762;52.006;8.424;2023-03-01T08:43:36;11.77;;;5.53;;
76063;SDS011;64762;52.006;8.424;2023-03-01T08:46:02;15.83;;;7.50;;
76063;SDS011;64762;52.006;8.424;2023-03-01T08:48:27;17.07;;;7.13;;
76063;SDS011;64762;52.006;8.424;2023-03-01T08:50:53;14.13;;;6.80;;
76063;SDS011;64762;52.006;8.424;2023-03-01T08:53:18;15.33;;;7.07;;
76063;SDS011;64762;52.006;8.424;2023-03-01T08:55:43;18.87;;;6.93;;
76063;SDS011;64762;52.006;8.424;2023-03-01T08:58:09;15.40;;;6.60;;
76063;SDS011;64762;52.006;8.424;2023-03-01T09:00:34;16.37;;;7.73;;
76063;SDS011;64762;52.006;8.424;2023-03-01T09:02:59;12.80;;;6.83;;
76063;SDS011;64762;52.006;8.424;2023-03-01T09:05:25;19.63;;;7.65;;
76063;SDS011;64762;52.006;8.424;2023-03-01T09:07:50;18.17;;;7.37;;
76063;SDS011;64762;52.006;8.424;2023-03-01T09:10:15;14.90;;;7.37;;
76063;SDS011;64762;52.006;8.424;2023-03-01T09:12:41;21.90;;;9.17;;
76063;SDS011;64762;52.006;8.424;2023-03-01T09:15:06;15.03;;;7.67;;
76063;SDS011;64762;52.006;8.424;2023-03-01T09:17:32;16.33;;;6.90;;
76063;SDS011;64762;52.006;8.424;2023-03-01T09:19:57;18.57;;;6.83;;
76063;SDS011;64762;52.006;8.424;2023-03-01T09:22:24;14.95;;;7.78;;
76063;SDS011;64762;52.006;8.424;2023-03-01T09:24:49;14.63;;;6.60;;
76063;SDS011;64762;52.006;8.424;2023-03-01T09:27:15;17.97;;;6.67;;
76063;SDS011;64762;52.006;8.424;2023-03-01T09:29:43;18.02;;;6.80;;
76063;SDS011;64762;52.006;8.424;2023-03-01T09:32:08;19.00;;;6.93;;
76063;SDS011;64762;52.006;8.424;2023-03-01T09:34:34;16.23;;;6.50;;
76063;SDS011;64762;52.006;8.424;2023-03-01T09:37:19;16.15;;;7.68;;
76063;SDS011;64762;52.006;8.424;2023-03-01T09:39:44;16.00;;;6.63;;
76063;SDS011;64762;52.006;8.424;2023-03-01T09:42:10;12.50;;;5.47;;
76063;SDS011;64762;52.006;8.424;2023-03-01T09:44:41;12.65;;;5.68;;
76063;SDS011;64762;52.006;8.424;2023-03-01T09:47:33;13.23;;;6.53;;
76063;SDS011;64762;52.006;8.424;2023-03-01T09:55:08;18.42;;;7.55;;
76063;SDS011;64762;52.006;8.424;2023-03-01T09:57:41;18.27;;;6.65;;
76063;SDS011;64762;52.006;8.424;2023-03-01T10:00:23;14.90;;;6.53;;
76063;SDS011;64762;52.006;8.424;2023-03-01T10:02:59;19.27;;;6.43;;
76063;SDS011;64762;52.006;8.424;2023-03-01T10:05:34;16.92;;;7.18;;
76063;SDS011;64762;52.006;8.424;2023-03-01T10:08:06;13.93;;;6.00;;
76063;SDS011;64762;52.006;8.424;2023-03-01T10:10:45;13.90;;;6.97;;
76063;SDS011;64762;52.006;8.424;2023-03-01T10:13:29;14.13;;;6.10;;
76063;SDS011;64762;52.006;8.424;2023-03-01T10:16:09;19.67;;;6.47;;
76063;SDS011;64762;52.006;8.424;2023-03-01T10:18:37;15.93;;;6.72;;
76063;SDS011;64762;52.006;8.424;2023-03-01T10:21:05;13.15;;;5.85;;
76063;SDS011;64762;52.006;8.424;2023-03-01T10:23:37;15.60;;;6.65;;
76063;SDS011;64762;52.006;8.424;2023-03-01T10:26:07;15.17;;;5.97;;
76063;SDS011;64762;52.006;8.424;2023-03-01T10:28:44;17.52;;;6.15;;
76063;SDS011;64762;52.006;8.424;2023-03-01T10:31:18;15.00;;;6.47;;
76063;SDS011;64762;52.006;8.424;2023-03-01T10:33:47;13.35;;;6.25;;
76063;SDS011;64762;52.006;8.424;2023-03-01T10:36:16;15.60;;;6.25;;
76063;SDS011;64762;52.006;8.424;2023-03-01T10:41:40;16.35;;;6.80;;
76063;SDS011;64762;52.006;8.424;2023-03-01T10:44:34;13.35;;;6.25;;
76063;SDS011;64762;52.006;8.424;2023-03-01T10:47:02;14.52;;;6.03;;
76063;SDS011;64762;52.006;8.424;2023-03-01T10:49:27;11.60;;;4.03;;
76063;SDS011;64762;52.006;8.424;2023-03-01T10:51:53;16.57;;;6.77;;
76063;SDS011;64762;52.006;8.424;2023-03-01T10:54:28;17.73;;;6.50;;
76063;SDS011;64762;52.006;8.424;2023-03-01T10:56:56;17.52;;;6.40;;
76063;SDS011;64762;52.006;8.424;2023-03-01T10:59:26;18.80;;;6.32;;
76063;SDS011;64762;52.006;8.424;2023-03-01T11:04:39;11.50;;;5.30;;
76063;SDS011;64762;52.006;8.424;2023-03-01T11:07:07;12.68;;;5.45;;
76063;SDS011;64762;52.006;8.424;2023-03-01T11:09:33;15.53;;;6.97;;
76063;SDS011;64762;52.006;8.424;2023-03-01T11:14:30;11.60;;;4.93;;
76063;SDS011;64762;52.006;8.424;2023-03-01T11:17:01;12.13;;;5.07;;
76063;SDS011;64762;52.006;8.424;2023-03-01T11:19:29;11.75;;;3.88;;
76063;SDS011;64762;52.006;8.424;2023-03-01T11:24:32;11.20;;;4.45;;
76063;SDS011;64762;52.006;8.424;2023-03-01T11:27:02;14.45;;;5.53;;
76063;SDS011;64762;52.006;8.424;2023-03-01T11:29:36;11.02;;;5.18;;
76063;SDS011;64762;52.006;8.424;2023-03-01T11:32:05;14.48;;;4.90;;
76063;SDS011;64762;52.006;8.424;2023-03-01T11:42:37;12.95;;;4.85;;
76063;SDS011;64762;52.006;8.424;2023-03-01T11:45:08;9.27;;;3.95;;
76063;SDS011;64762;52.006;8.424;2023-03-01T11:50:28;14.05;;;5.75;;
76063;SDS011;64762;52.006;8.424;2023-03-01T11:53:14;9.90;;;4.82;;
76063;SDS011;64762;52.006;8.424;2023-03-01T12:04:03;13.40;;;3.78;;
76063;SDS011;64762;52.006;8.424;2023-03-01T12:14:50;13.98;;;4.72;;
76063;SDS011;64762;52.006;8.424;2023-03-01T12:17:26;12.25;;;5.07;;
76063;SDS011;64762;52.006;8.424;2023-03-01T12:20:20;8.77;;;4.13;;
76063;SDS011;64762;52.006;8.424;2023-03-01T12:23:01;11.85;;;4.43;;
76063;SDS011;64762;52.006;8.424;2023-03-01T12:25:49;10.43;;;4.65;;
76063;SDS011;64762;52.006;8.424;2023-03-01T12:31:22;12.77;;;4.88;;
76063;SDS011;64762;52.006;8.424;2023-03-01T12:36:55;11.15;;;4.15;;
76063;SDS011;64762;52.006;8.424;2023-03-01T12:47:58;16.85;;;4.75;;
76063;SDS011;64762;52.006;8.424;2023-03-01T12:50:37;10.10;;;4.82;;
76063;SDS011;64762;52.006;8.424;2023-03-01T12:53:20;8.77;;;4.20;;
76063;SDS011;64762;52.006;8.424;2023-03-01T12:55:50;11.77;;;4.78;;
76063;SDS011;64762;52.006;8.424;2023-03-01T12:58:20;11.80;;;5.05;;
76063;SDS011;64762;52.006;8.424;2023-03-01T13:01:11;6.93;;;3.67;;
76063;SDS011;64762;52.006;8.424;2023-03-01T13:03:52;11.50;;;4.15;;
76063;SDS011;64762;52.006;8.424;2023-03-01T13:06:42;10.68;;;4.63;;
76063;SDS011;64762;52.006;8.424;2023-03-01T13:11:44;11.05;;;4.25;;
76063;SDS011;64762;52.006;8.424;2023-03-01T13:16:50;14.98;;;4.35;;
76063;SDS011;64762;52.006;8.424;2023-03-01T13:19:17;9.35;;;4.13;;
76063;SDS011;64762;52.006;8.424;2023-03-01T13:21:44;11.07;;;4.22;;
76063;SDS011;64762;52.006;8.424;2023-03-01T13:29:49;11.80;;;4.53;;
76063;SDS011;64762;52.006;8.424;2023-03-01T13:32:26;11.35;;;4.60;;
76063;SDS011;64762;52.006;8.424;2023-03-01T13:35:02;12.85;;;5.00;;
76063;SDS011;64762;52.006;8.424;2023-03-01T13:37:35;10.88;;;4.90;;
76063;SDS011;64762;52.006;8.424;2023-03-01T13:40:04;8.75;;;3.78;;
76063;SDS011;64762;52.006;8.424;2023-03-01T13:42:51;8.90;;;3.95;;
76063;SDS011;64762;52.006;8.424;2023-03-01T13:45:20;9.27;;;4.63;;
76063;SDS011;64762;52.006;8.424;2023-03-01T13:48:03;7.22;;;3.65;;
76063;SDS011;64762;52.006;8.424;2023-03-01T13:50:38;8.95;;;3.17;;
76063;SDS011;64762;52.006;8.424;2023-03-01T13:53:11;8.88;;;4.00;;
76063;SDS011;64762;52.006;8.424;2023-03-01T13:55:51;8.10;;;4.13;;
76063;SDS011;64762;52.006;8.424;2023-03-01T14:01:00;10.75;;;5.53;;
76063;SDS011;64762;52.006;8.424;2023-03-01T14:03:27;10.15;;;4.78;;
76063;SDS011;64762;52.006;8.424;2023-03-01T14:05:59;14.15;;;5.65;;
76063;SDS011;64762;52.006;8.424;2023-03-01T14:08:31;7.15;;;3.25;;
76063;SDS011;64762;52.006;8.424;2023-03-01T14:19:46;10.20;;;4.28;;
76063;SDS011;64762;52.006;8.424;2023-03-01T14:22:23;10.25;;;4.32;;
76063;SDS011;64762;52.006;8.424;2023-03-01T14:25:00;9.43;;;3.28;;
76063;SDS011;64762;52.006;8.424;2023-03-01T14:27:29;9.23;;;4.28;;
76063;SDS011;64762;52.006;8.424;2023-03-01T14:30:01;12.88;;;4.05;;
76063;SDS011;64762;52.006;8.424;2023-03-01T14:32:29;10.40;;;4.10;;
76063;SDS011;64762;52.006;8.424;2023-03-01T14:34:56;6.00;;;3.05;;
76063;SDS011;64762;52.006;8.424;2023-03-01T14:37:25;9.10;;;3.47;;
76063;SDS011;64762;52.006;8.424;2023-03-01T14:39:56;10.55;;;3.90;;
76063;SDS011;64762;52.006;8.424;2023-03-01T14:42:22;9.07;;;3.55;;
76063;SDS011;64762;52.006;8.424;2023-03-01T14:44:50;9.93;;;4.10;;
76063;SDS011;64762;52.006;8.424;2023-03-01T14:47:23;9.70;;;4.05;;
76063;SDS011;64762;52.006;8.424;2023-03-01T14:49:54;11.40;;;3.67;;
76063;SDS011;64762;52.006;8.424;2023-03-01T14:52:23;7.28;;;3.25;;
76063;SDS011;64762;52.006;8.424;2023-03-01T14:54:53;6.78;;;2.90;;
76063;SDS011;64762;52.006;8.424;2023-03-01T14:57:23;8.50;;;3.60;;
76063;SDS011;64762;52.006;8.424;2023-03-01T14:59:50;9.35;;;3.78;;
76063;SDS011;64762;52.006;8.424;2023-03-01T15:02:18;7.90;;;3.20;;
76063;SDS011;64762;52.006;8.424;2023-03-01T15:04:45;7.53;;;3.63;;
76063;SDS011;64762;52.006;8.424;2023-03-01T15:07:12;9.75;;;2.78;;
76063;SDS011;64762;52.006;8.424;2023-03-01T15:09:39;9.43;;;3.47;;
76063;SDS011;64762;52.006;8.424;2023-03-01T15:14:51;7.70;;;3.35;;
76063;SDS011;64762;52.006;8.424;2023-03-01T15:20:00;10.40;;;3.85;;
76063;SDS011;64762;52.006;8.424;2023-03-01T15:22:27;6.65;;;3.03;;
76063;SDS011;64762;52.006;8.424;2023-03-01T15:24:53;10.00;;;3.60;;
76063;SDS011;64762;52.006;8.424;2023-03-01T15:27:19;7.95;;;3.08;;
76063;SDS011;64762;52.006;8.424;2023-03-01T15:29:58;10.02;;;3.40;;
76063;SDS011;64762;52.006;8.424;2023-03-01T15:32:35;6.80;;;2.80;;
76063;SDS011;64762;52.006;8.424;2023-03-01T15:37:59;9.80;;;2.80;;
76063;SDS011;64762;52.006;8.424;2023-03-01T15:40:29;10.38;;;3.95;;
76063;SDS011;64762;52.006;8.424;2023-03-01T15:42:58;9.40;;;3.72;;
76063;SDS011;64762;52.006;8.424;2023-03-01T15:45:24;8.90;;;4.35;;
76063;SDS011;64762;52.006;8.424;2023-03-01T15:47:53;8.77;;;3.92;;
76063;SDS011;64762;52.006;8.424;2023-03-01T15:50:32;6.28;;;3.30;;
76063;SDS011;64762;52.006;8.424;2023-03-01T15:53:00;7.70;;;2.97;;
76063;SDS011;64762;52.006;8.424;2023-03-01T15:55:31;5.18;;;2.30;;
76063;SDS011;64762;52.006;8.424;2023-03-01T15:58:03;10.02;;;4.30;;
76063;SDS011;64762;52.006;8.424;2023-03-01T16:00:31;7.90;;;3.72;;
76063;SDS011;64762;52.006;8.424;2023-03-01T16:02:57;6.80;;;3.35;;
76063;SDS011;64762;52.006;8.424;2023-03-01T16:05:30;8.30;;;3.23;;
76063;SDS011;64762;52.006;8.424;2023-03-01T16:07:56;7.75;;;3.70;;
76063;SDS011;64762;52.006;8.424;2023-03-01T16:10:22;10.43;;;3.45;;
76063;SDS011;64762;52.006;8.424;2023-03-01T16:12:48;9.57;;;3.58;;
76063;SDS011;64762;52.006;8.424;2023-03-01T16:15:18;7.03;;;2.92;;
76063;SDS011;64762;52.006;8.424;2023-03-01T16:17:45;6.90;;;3.20;;